<?xml version="1.0" encoding="UTF-8" standalone="no" ?>
<gpx xmlns="http://www.topografix.com/GPX/1/1" xmlns:xsi="http://www.w3.org/2001/XMLSchema-instance" xsi:schemaLocation="http://www.topografix.com/GPX/1/1 http://www.topografix.com/GPX/1/1/gpx.xsd" version="1.1" creator="VisuGPX - https://www.visugpx.com">
  <metadata>
    <name>Boucle Cuyalaret Estremere-64-Ski</name>
    <desc><![CDATA[Beau final avec le Couloir de l'Araille
Pic Estremere /Pic du Pourtalet
]]></desc>
  </metadata>
  <trk>
    <name><![CDATA[2023-01-29 Boucle Cuyalaret Estremere]]></name>
    <desc><![CDATA[<p>Heure de départ: 09:53 29 janv. 2023<br/>Heure d'arrivée: 15:27 29 janv. 2023<br/>Distance: 10,5 km (05:34)<br/>Temps déplacement: 02:15<br/>Vitesse moyenne: 1,88 km/h<br/>Vitesse moyenne mouv.: 4,64 km/h<br/>Vitesse Max.: 33,43 km/h<br/>Altitude minimale: 1711 m<br/>Altitude maximale: 2290 m<br/>Vitesse de montée: 240,3 m/h<br/>Vitesse de descente: -645,3 m/h<br/>Gain d'altitude: 974 m<br/>Perte d'altitude: -977 m<br/>Temps de montée: 04:03<br/>Temps de descente: 01:30<br/></p><hr align="center" width="480" style="height: 2px; width: 517px"/>]]></desc>
    <trkseg>
      <trkpt lat="42.81525" lon="-0.41825">
        <ele>1721.92</ele>
        <time>2023-01-29T08:53:08Z</time>
      </trkpt>
      <trkpt lat="42.81513" lon="-0.41846">
        <ele>1718</ele>
        <time>2023-01-29T08:53:37Z</time>
      </trkpt>
      <trkpt lat="42.81499" lon="-0.41862">
        <ele>1715.27</ele>
        <time>2023-01-29T08:53:50Z</time>
      </trkpt>
      <trkpt lat="42.81482" lon="-0.4187">
        <ele>1715</ele>
        <time>2023-01-29T08:54:03Z</time>
      </trkpt>
      <trkpt lat="42.81464" lon="-0.41877">
        <ele>1717</ele>
        <time>2023-01-29T08:54:19Z</time>
      </trkpt>
      <trkpt lat="42.81449" lon="-0.4189">
        <ele>1712.8</ele>
        <time>2023-01-29T08:54:35Z</time>
      </trkpt>
      <trkpt lat="42.81438" lon="-0.41913">
        <ele>1715</ele>
        <time>2023-01-29T08:54:47Z</time>
      </trkpt>
      <trkpt lat="42.81429" lon="-0.41935">
        <ele>1712</ele>
        <time>2023-01-29T08:55:00Z</time>
      </trkpt>
      <trkpt lat="42.81428" lon="-0.4196">
        <ele>1711</ele>
        <time>2023-01-29T08:55:19Z</time>
      </trkpt>
      <trkpt lat="42.81418" lon="-0.41982">
        <ele>1713</ele>
        <time>2023-01-29T08:55:33Z</time>
      </trkpt>
      <trkpt lat="42.81407" lon="-0.42004">
        <ele>1714.03</ele>
        <time>2023-01-29T08:55:47Z</time>
      </trkpt>
      <trkpt lat="42.81398" lon="-0.42026">
        <ele>1714</ele>
        <time>2023-01-29T08:55:59Z</time>
      </trkpt>
      <trkpt lat="42.81384" lon="-0.42043">
        <ele>1714</ele>
        <time>2023-01-29T08:56:17Z</time>
      </trkpt>
      <trkpt lat="42.81368" lon="-0.42057">
        <ele>1714.91</ele>
        <time>2023-01-29T08:56:37Z</time>
      </trkpt>
      <trkpt lat="42.81356" lon="-0.42075">
        <ele>1716</ele>
        <time>2023-01-29T08:56:54Z</time>
      </trkpt>
      <trkpt lat="42.81361" lon="-0.42099">
        <ele>1717</ele>
        <time>2023-01-29T08:58:45Z</time>
      </trkpt>
      <trkpt lat="42.81353" lon="-0.42122">
        <ele>1721</ele>
        <time>2023-01-29T08:59:07Z</time>
      </trkpt>
      <trkpt lat="42.81342" lon="-0.42141">
        <ele>1721.99</ele>
        <time>2023-01-29T08:59:31Z</time>
      </trkpt>
      <trkpt lat="42.8133" lon="-0.4216">
        <ele>1721</ele>
        <time>2023-01-29T08:59:51Z</time>
      </trkpt>
      <trkpt lat="42.81318" lon="-0.42178">
        <ele>1724</ele>
        <time>2023-01-29T09:00:12Z</time>
      </trkpt>
      <trkpt lat="42.81307" lon="-0.42199">
        <ele>1724</ele>
        <time>2023-01-29T09:00:33Z</time>
      </trkpt>
      <trkpt lat="42.81292" lon="-0.42215">
        <ele>1723</ele>
        <time>2023-01-29T09:00:55Z</time>
      </trkpt>
      <trkpt lat="42.81278" lon="-0.4223">
        <ele>1725</ele>
        <time>2023-01-29T09:01:15Z</time>
      </trkpt>
      <trkpt lat="42.81263" lon="-0.42244">
        <ele>1724</ele>
        <time>2023-01-29T09:01:40Z</time>
      </trkpt>
      <trkpt lat="42.81261" lon="-0.42269">
        <ele>1725</ele>
        <time>2023-01-29T09:02:07Z</time>
      </trkpt>
      <trkpt lat="42.81259" lon="-0.42294">
        <ele>1726</ele>
        <time>2023-01-29T09:02:27Z</time>
      </trkpt>
      <trkpt lat="42.81255" lon="-0.42319">
        <ele>1727</ele>
        <time>2023-01-29T09:02:46Z</time>
      </trkpt>
      <trkpt lat="42.81255" lon="-0.42344">
        <ele>1729</ele>
        <time>2023-01-29T09:03:07Z</time>
      </trkpt>
      <trkpt lat="42.81254" lon="-0.42369">
        <ele>1731</ele>
        <time>2023-01-29T09:03:33Z</time>
      </trkpt>
      <trkpt lat="42.81256" lon="-0.42394">
        <ele>1735</ele>
        <time>2023-01-29T09:03:56Z</time>
      </trkpt>
      <trkpt lat="42.81251" lon="-0.42418">
        <ele>1737.98</ele>
        <time>2023-01-29T09:04:21Z</time>
      </trkpt>
      <trkpt lat="42.81245" lon="-0.42443">
        <ele>1730</ele>
        <time>2023-01-29T09:04:40Z</time>
      </trkpt>
      <trkpt lat="42.81228" lon="-0.42434">
        <ele>1730</ele>
        <time>2023-01-29T09:05:38Z</time>
      </trkpt>
      <trkpt lat="42.81211" lon="-0.42422">
        <ele>1732</ele>
        <time>2023-01-29T09:06:05Z</time>
      </trkpt>
      <trkpt lat="42.81193" lon="-0.42416">
        <ele>1735.5</ele>
        <time>2023-01-29T09:06:25Z</time>
      </trkpt>
      <trkpt lat="42.81177" lon="-0.42408">
        <ele>1737</ele>
        <time>2023-01-29T09:06:44Z</time>
      </trkpt>
      <trkpt lat="42.81159" lon="-0.42398">
        <ele>1737</ele>
        <time>2023-01-29T09:07:06Z</time>
      </trkpt>
      <trkpt lat="42.81142" lon="-0.42387">
        <ele>1734</ele>
        <time>2023-01-29T09:07:35Z</time>
      </trkpt>
      <trkpt lat="42.81124" lon="-0.42383">
        <ele>1736</ele>
        <time>2023-01-29T09:08:13Z</time>
      </trkpt>
      <trkpt lat="42.81108" lon="-0.42395">
        <ele>1744.99</ele>
        <time>2023-01-29T09:08:35Z</time>
      </trkpt>
      <trkpt lat="42.81092" lon="-0.42408">
        <ele>1745</ele>
        <time>2023-01-29T09:09:00Z</time>
      </trkpt>
      <trkpt lat="42.81079" lon="-0.42426">
        <ele>1755</ele>
        <time>2023-01-29T09:09:28Z</time>
      </trkpt>
      <trkpt lat="42.81061" lon="-0.42433">
        <ele>1755</ele>
        <time>2023-01-29T09:11:11Z</time>
      </trkpt>
      <trkpt lat="42.81047" lon="-0.42448">
        <ele>1754</ele>
        <time>2023-01-29T09:11:45Z</time>
      </trkpt>
      <trkpt lat="42.81038" lon="-0.4247">
        <ele>1754</ele>
        <time>2023-01-29T09:12:16Z</time>
      </trkpt>
      <trkpt lat="42.8103" lon="-0.42492">
        <ele>1756</ele>
        <time>2023-01-29T09:12:45Z</time>
      </trkpt>
      <trkpt lat="42.81024" lon="-0.42516">
        <ele>1758</ele>
        <time>2023-01-29T09:13:03Z</time>
      </trkpt>
      <trkpt lat="42.81017" lon="-0.42539">
        <ele>1759</ele>
        <time>2023-01-29T09:13:23Z</time>
      </trkpt>
      <trkpt lat="42.8101" lon="-0.42562">
        <ele>1760</ele>
        <time>2023-01-29T09:13:41Z</time>
      </trkpt>
      <trkpt lat="42.81002" lon="-0.42584">
        <ele>1760.91</ele>
        <time>2023-01-29T09:14:07Z</time>
      </trkpt>
      <trkpt lat="42.80994" lon="-0.42607">
        <ele>1763</ele>
        <time>2023-01-29T09:14:38Z</time>
      </trkpt>
      <trkpt lat="42.80985" lon="-0.4263">
        <ele>1763</ele>
        <time>2023-01-29T09:14:58Z</time>
      </trkpt>
      <trkpt lat="42.80976" lon="-0.42652">
        <ele>1765</ele>
        <time>2023-01-29T09:15:23Z</time>
      </trkpt>
      <trkpt lat="42.80962" lon="-0.42668">
        <ele>1771</ele>
        <time>2023-01-29T09:16:05Z</time>
      </trkpt>
      <trkpt lat="42.80951" lon="-0.42688">
        <ele>1771</ele>
        <time>2023-01-29T09:16:28Z</time>
      </trkpt>
      <trkpt lat="42.80939" lon="-0.42707">
        <ele>1782</ele>
        <time>2023-01-29T09:16:54Z</time>
      </trkpt>
      <trkpt lat="42.80929" lon="-0.42728">
        <ele>1786</ele>
        <time>2023-01-29T09:17:20Z</time>
      </trkpt>
      <trkpt lat="42.80917" lon="-0.42746">
        <ele>1789.5</ele>
        <time>2023-01-29T09:18:01Z</time>
      </trkpt>
      <trkpt lat="42.80911" lon="-0.4277">
        <ele>1795</ele>
        <time>2023-01-29T09:18:24Z</time>
      </trkpt>
      <trkpt lat="42.80906" lon="-0.42794">
        <ele>1797</ele>
        <time>2023-01-29T09:18:53Z</time>
      </trkpt>
      <trkpt lat="42.80898" lon="-0.42816">
        <ele>1801</ele>
        <time>2023-01-29T09:23:21Z</time>
      </trkpt>
      <trkpt lat="42.80895" lon="-0.42841">
        <ele>1805</ele>
        <time>2023-01-29T09:23:50Z</time>
      </trkpt>
      <trkpt lat="42.80896" lon="-0.42866">
        <ele>1809</ele>
        <time>2023-01-29T09:24:26Z</time>
      </trkpt>
      <trkpt lat="42.80893" lon="-0.42891">
        <ele>1809.91</ele>
        <time>2023-01-29T09:24:57Z</time>
      </trkpt>
      <trkpt lat="42.80884" lon="-0.42914">
        <ele>1819</ele>
        <time>2023-01-29T09:28:25Z</time>
      </trkpt>
      <trkpt lat="42.80876" lon="-0.42936">
        <ele>1818</ele>
        <time>2023-01-29T09:31:23Z</time>
      </trkpt>
      <trkpt lat="42.80862" lon="-0.42952">
        <ele>1820</ele>
        <time>2023-01-29T09:31:50Z</time>
      </trkpt>
      <trkpt lat="42.80856" lon="-0.42976">
        <ele>1830</ele>
        <time>2023-01-29T09:32:22Z</time>
      </trkpt>
      <trkpt lat="42.80858" lon="-0.43">
        <ele>1837.7</ele>
        <time>2023-01-29T09:32:51Z</time>
      </trkpt>
      <trkpt lat="42.80842" lon="-0.43013">
        <ele>1841</ele>
        <time>2023-01-29T09:33:57Z</time>
      </trkpt>
      <trkpt lat="42.80845" lon="-0.43038">
        <ele>1840</ele>
        <time>2023-01-29T09:34:41Z</time>
      </trkpt>
      <trkpt lat="42.80832" lon="-0.43055">
        <ele>1846</ele>
        <time>2023-01-29T09:35:17Z</time>
      </trkpt>
      <trkpt lat="42.80819" lon="-0.43074">
        <ele>1845</ele>
        <time>2023-01-29T09:35:43Z</time>
      </trkpt>
      <trkpt lat="42.80804" lon="-0.43089">
        <ele>1849.55</ele>
        <time>2023-01-29T09:36:01Z</time>
      </trkpt>
      <trkpt lat="42.80788" lon="-0.43101">
        <ele>1850</ele>
        <time>2023-01-29T09:36:21Z</time>
      </trkpt>
      <trkpt lat="42.80774" lon="-0.43084">
        <ele>1858</ele>
        <time>2023-01-29T09:36:55Z</time>
      </trkpt>
      <trkpt lat="42.80756" lon="-0.43083">
        <ele>1858</ele>
        <time>2023-01-29T09:37:16Z</time>
      </trkpt>
      <trkpt lat="42.80738" lon="-0.4309">
        <ele>1868</ele>
        <time>2023-01-29T09:37:38Z</time>
      </trkpt>
      <trkpt lat="42.80721" lon="-0.43095">
        <ele>1877.73</ele>
        <time>2023-01-29T09:38:10Z</time>
      </trkpt>
      <trkpt lat="42.80703" lon="-0.431">
        <ele>1878</ele>
        <time>2023-01-29T09:38:36Z</time>
      </trkpt>
      <trkpt lat="42.80685" lon="-0.43093">
        <ele>1876</ele>
        <time>2023-01-29T09:39:31Z</time>
      </trkpt>
      <trkpt lat="42.80685" lon="-0.43118">
        <ele>1885</ele>
        <time>2023-01-29T09:40:23Z</time>
      </trkpt>
      <trkpt lat="42.80683" lon="-0.43142">
        <ele>1898</ele>
        <time>2023-01-29T09:41:02Z</time>
      </trkpt>
      <trkpt lat="42.80667" lon="-0.43154">
        <ele>1898</ele>
        <time>2023-01-29T09:41:54Z</time>
      </trkpt>
      <trkpt lat="42.80649" lon="-0.43151">
        <ele>1897</ele>
        <time>2023-01-29T09:45:19Z</time>
      </trkpt>
      <trkpt lat="42.80639" lon="-0.43172">
        <ele>1911.99</ele>
        <time>2023-01-29T09:46:28Z</time>
      </trkpt>
      <trkpt lat="42.8065" lon="-0.43191">
        <ele>1907</ele>
        <time>2023-01-29T09:47:57Z</time>
      </trkpt>
      <trkpt lat="42.80633" lon="-0.43203">
        <ele>1920</ele>
        <time>2023-01-29T09:48:23Z</time>
      </trkpt>
      <trkpt lat="42.80624" lon="-0.43223">
        <ele>1925</ele>
        <time>2023-01-29T09:51:39Z</time>
      </trkpt>
      <trkpt lat="42.80607" lon="-0.43232">
        <ele>1924</ele>
        <time>2023-01-29T09:52:36Z</time>
      </trkpt>
      <trkpt lat="42.80591" lon="-0.43244">
        <ele>1924</ele>
        <time>2023-01-29T09:52:57Z</time>
      </trkpt>
      <trkpt lat="42.80576" lon="-0.4323">
        <ele>1924</ele>
        <time>2023-01-29T09:53:23Z</time>
      </trkpt>
      <trkpt lat="42.80559" lon="-0.43238">
        <ele>1924</ele>
        <time>2023-01-29T09:53:50Z</time>
      </trkpt>
      <trkpt lat="42.80541" lon="-0.43245">
        <ele>1930</ele>
        <time>2023-01-29T09:54:15Z</time>
      </trkpt>
      <trkpt lat="42.80526" lon="-0.43257">
        <ele>1936.97</ele>
        <time>2023-01-29T09:54:48Z</time>
      </trkpt>
      <trkpt lat="42.80511" lon="-0.43271">
        <ele>1937</ele>
        <time>2023-01-29T09:55:30Z</time>
      </trkpt>
      <trkpt lat="42.80504" lon="-0.43294">
        <ele>1941</ele>
        <time>2023-01-29T09:55:57Z</time>
      </trkpt>
      <trkpt lat="42.80501" lon="-0.43319">
        <ele>1947</ele>
        <time>2023-01-29T09:56:35Z</time>
      </trkpt>
      <trkpt lat="42.80493" lon="-0.43341">
        <ele>1943</ele>
        <time>2023-01-29T09:57:01Z</time>
      </trkpt>
      <trkpt lat="42.80482" lon="-0.43363">
        <ele>1948.46</ele>
        <time>2023-01-29T09:57:24Z</time>
      </trkpt>
      <trkpt lat="42.80475" lon="-0.43387">
        <ele>1949</ele>
        <time>2023-01-29T09:58:01Z</time>
      </trkpt>
      <trkpt lat="42.80465" lon="-0.43408">
        <ele>1949</ele>
        <time>2023-01-29T09:58:40Z</time>
      </trkpt>
      <trkpt lat="42.80456" lon="-0.4343">
        <ele>1956</ele>
        <time>2023-01-29T09:59:15Z</time>
      </trkpt>
      <trkpt lat="42.80448" lon="-0.43453">
        <ele>1961</ele>
        <time>2023-01-29T09:59:29Z</time>
      </trkpt>
      <trkpt lat="42.80442" lon="-0.43476">
        <ele>1956.99</ele>
        <time>2023-01-29T09:59:47Z</time>
      </trkpt>
      <trkpt lat="42.80432" lon="-0.43498">
        <ele>1957</ele>
        <time>2023-01-29T10:00:17Z</time>
      </trkpt>
      <trkpt lat="42.80423" lon="-0.43519">
        <ele>1961</ele>
        <time>2023-01-29T10:00:37Z</time>
      </trkpt>
      <trkpt lat="42.80414" lon="-0.43541">
        <ele>1961</ele>
        <time>2023-01-29T10:01:13Z</time>
      </trkpt>
      <trkpt lat="42.80404" lon="-0.43562">
        <ele>1968</ele>
        <time>2023-01-29T10:01:43Z</time>
      </trkpt>
      <trkpt lat="42.80391" lon="-0.43582">
        <ele>1968</ele>
        <time>2023-01-29T10:02:42Z</time>
      </trkpt>
      <trkpt lat="42.80376" lon="-0.43597">
        <ele>1965</ele>
        <time>2023-01-29T10:03:05Z</time>
      </trkpt>
      <trkpt lat="42.80361" lon="-0.43613">
        <ele>1974.1</ele>
        <time>2023-01-29T10:03:25Z</time>
      </trkpt>
      <trkpt lat="42.80346" lon="-0.43627">
        <ele>1961</ele>
        <time>2023-01-29T10:03:51Z</time>
      </trkpt>
      <trkpt lat="42.80332" lon="-0.43645">
        <ele>1962.52</ele>
        <time>2023-01-29T10:04:15Z</time>
      </trkpt>
      <trkpt lat="42.80319" lon="-0.43662">
        <ele>1962</ele>
        <time>2023-01-29T10:05:02Z</time>
      </trkpt>
      <trkpt lat="42.80302" lon="-0.43672">
        <ele>1964</ele>
        <time>2023-01-29T10:06:16Z</time>
      </trkpt>
      <trkpt lat="42.80292" lon="-0.43693">
        <ele>1964</ele>
        <time>2023-01-29T10:06:39Z</time>
      </trkpt>
      <trkpt lat="42.80304" lon="-0.43713">
        <ele>1970</ele>
        <time>2023-01-29T10:07:11Z</time>
      </trkpt>
      <trkpt lat="42.80318" lon="-0.43729">
        <ele>1977</ele>
        <time>2023-01-29T10:07:36Z</time>
      </trkpt>
      <trkpt lat="42.80331" lon="-0.43746">
        <ele>1977</ele>
        <time>2023-01-29T10:08:04Z</time>
      </trkpt>
      <trkpt lat="42.80342" lon="-0.43765">
        <ele>1987</ele>
        <time>2023-01-29T10:08:42Z</time>
      </trkpt>
      <trkpt lat="42.80353" lon="-0.43785">
        <ele>1990</ele>
        <time>2023-01-29T10:09:33Z</time>
      </trkpt>
      <trkpt lat="42.80347" lon="-0.43808">
        <ele>1990.97</ele>
        <time>2023-01-29T10:10:03Z</time>
      </trkpt>
      <trkpt lat="42.80336" lon="-0.43829">
        <ele>1991</ele>
        <time>2023-01-29T10:10:28Z</time>
      </trkpt>
      <trkpt lat="42.80329" lon="-0.43852">
        <ele>1998</ele>
        <time>2023-01-29T10:11:08Z</time>
      </trkpt>
      <trkpt lat="42.80317" lon="-0.43871">
        <ele>2001</ele>
        <time>2023-01-29T10:11:48Z</time>
      </trkpt>
      <trkpt lat="42.80306" lon="-0.43892">
        <ele>2009.9</ele>
        <time>2023-01-29T10:12:17Z</time>
      </trkpt>
      <trkpt lat="42.803" lon="-0.43916">
        <ele>2012</ele>
        <time>2023-01-29T10:12:45Z</time>
      </trkpt>
      <trkpt lat="42.80296" lon="-0.43941">
        <ele>2015</ele>
        <time>2023-01-29T10:13:21Z</time>
      </trkpt>
      <trkpt lat="42.80289" lon="-0.43963">
        <ele>2018</ele>
        <time>2023-01-29T10:13:47Z</time>
      </trkpt>
      <trkpt lat="42.80279" lon="-0.43985">
        <ele>2020</ele>
        <time>2023-01-29T10:14:17Z</time>
      </trkpt>
      <trkpt lat="42.80275" lon="-0.44009">
        <ele>2035</ele>
        <time>2023-01-29T10:14:54Z</time>
      </trkpt>
      <trkpt lat="42.80274" lon="-0.44034">
        <ele>2037.98</ele>
        <time>2023-01-29T10:15:31Z</time>
      </trkpt>
      <trkpt lat="42.80267" lon="-0.44058">
        <ele>2042.55</ele>
        <time>2023-01-29T10:16:47Z</time>
      </trkpt>
      <trkpt lat="42.80249" lon="-0.44058">
        <ele>2054.9</ele>
        <time>2023-01-29T10:17:45Z</time>
      </trkpt>
      <trkpt lat="42.80231" lon="-0.44061">
        <ele>2055</ele>
        <time>2023-01-29T10:18:59Z</time>
      </trkpt>
      <trkpt lat="42.80215" lon="-0.44048">
        <ele>2064</ele>
        <time>2023-01-29T10:19:25Z</time>
      </trkpt>
      <trkpt lat="42.80206" lon="-0.44026">
        <ele>2061.08</ele>
        <time>2023-01-29T10:19:55Z</time>
      </trkpt>
      <trkpt lat="42.80199" lon="-0.44003">
        <ele>2061</ele>
        <time>2023-01-29T10:20:28Z</time>
      </trkpt>
      <trkpt lat="42.80191" lon="-0.43981">
        <ele>2077</ele>
        <time>2023-01-29T10:21:03Z</time>
      </trkpt>
      <trkpt lat="42.80175" lon="-0.43968">
        <ele>2075</ele>
        <time>2023-01-29T10:21:36Z</time>
      </trkpt>
      <trkpt lat="42.80159" lon="-0.43959">
        <ele>2087</ele>
        <time>2023-01-29T10:22:13Z</time>
      </trkpt>
      <trkpt lat="42.8014" lon="-0.43965">
        <ele>2087</ele>
        <time>2023-01-29T10:22:50Z</time>
      </trkpt>
      <trkpt lat="42.80124" lon="-0.43975">
        <ele>2099</ele>
        <time>2023-01-29T10:23:20Z</time>
      </trkpt>
      <trkpt lat="42.80108" lon="-0.43988">
        <ele>2105</ele>
        <time>2023-01-29T10:23:58Z</time>
      </trkpt>
      <trkpt lat="42.80092" lon="-0.44">
        <ele>2109.9</ele>
        <time>2023-01-29T10:24:39Z</time>
      </trkpt>
      <trkpt lat="42.80083" lon="-0.44022">
        <ele>2112</ele>
        <time>2023-01-29T10:30:32Z</time>
      </trkpt>
      <trkpt lat="42.80077" lon="-0.44045">
        <ele>2118</ele>
        <time>2023-01-29T10:31:04Z</time>
      </trkpt>
      <trkpt lat="42.80069" lon="-0.44067">
        <ele>2124</ele>
        <time>2023-01-29T10:31:36Z</time>
      </trkpt>
      <trkpt lat="42.80066" lon="-0.44092">
        <ele>2128</ele>
        <time>2023-01-29T10:32:19Z</time>
      </trkpt>
      <trkpt lat="42.80058" lon="-0.44114">
        <ele>2129.98</ele>
        <time>2023-01-29T10:32:53Z</time>
      </trkpt>
      <trkpt lat="42.80041" lon="-0.44125">
        <ele>2139</ele>
        <time>2023-01-29T10:33:26Z</time>
      </trkpt>
      <trkpt lat="42.80026" lon="-0.44138">
        <ele>2143.86</ele>
        <time>2023-01-29T10:33:51Z</time>
      </trkpt>
      <trkpt lat="42.80017" lon="-0.4416">
        <ele>2154</ele>
        <time>2023-01-29T10:35:31Z</time>
      </trkpt>
      <trkpt lat="42.80008" lon="-0.44181">
        <ele>2161</ele>
        <time>2023-01-29T10:36:17Z</time>
      </trkpt>
      <trkpt lat="42.80001" lon="-0.44205">
        <ele>2170</ele>
        <time>2023-01-29T10:37:16Z</time>
      </trkpt>
      <trkpt lat="42.79988" lon="-0.44223">
        <ele>2174.6</ele>
        <time>2023-01-29T10:37:41Z</time>
      </trkpt>
      <trkpt lat="42.7998" lon="-0.44245">
        <ele>2177</ele>
        <time>2023-01-29T10:38:14Z</time>
      </trkpt>
      <trkpt lat="42.79968" lon="-0.44264">
        <ele>2184</ele>
        <time>2023-01-29T10:39:08Z</time>
      </trkpt>
      <trkpt lat="42.79955" lon="-0.4428">
        <ele>2193.99</ele>
        <time>2023-01-29T10:39:39Z</time>
      </trkpt>
      <trkpt lat="42.7994" lon="-0.44296">
        <ele>2191</ele>
        <time>2023-01-29T10:40:10Z</time>
      </trkpt>
      <trkpt lat="42.79924" lon="-0.44308">
        <ele>2204</ele>
        <time>2023-01-29T10:40:56Z</time>
      </trkpt>
      <trkpt lat="42.79909" lon="-0.4432">
        <ele>2202</ele>
        <time>2023-01-29T10:41:22Z</time>
      </trkpt>
      <trkpt lat="42.79892" lon="-0.44331">
        <ele>2202</ele>
        <time>2023-01-29T10:41:59Z</time>
      </trkpt>
      <trkpt lat="42.79878" lon="-0.44348">
        <ele>2212</ele>
        <time>2023-01-29T10:42:59Z</time>
      </trkpt>
      <trkpt lat="42.7986" lon="-0.44353">
        <ele>2213.82</ele>
        <time>2023-01-29T10:43:32Z</time>
      </trkpt>
      <trkpt lat="42.79842" lon="-0.4436">
        <ele>2214</ele>
        <time>2023-01-29T10:44:03Z</time>
      </trkpt>
      <trkpt lat="42.79833" lon="-0.44382">
        <ele>2226.65</ele>
        <time>2023-01-29T10:45:22Z</time>
      </trkpt>
      <trkpt lat="42.79843" lon="-0.44403">
        <ele>2234</ele>
        <time>2023-01-29T10:46:16Z</time>
      </trkpt>
      <trkpt lat="42.79827" lon="-0.44417">
        <ele>2251</ele>
        <time>2023-01-29T10:47:07Z</time>
      </trkpt>
      <trkpt lat="42.79811" lon="-0.44427">
        <ele>2251</ele>
        <time>2023-01-29T10:48:04Z</time>
      </trkpt>
      <trkpt lat="42.79816" lon="-0.44451">
        <ele>2264</ele>
        <time>2023-01-29T10:49:24Z</time>
      </trkpt>
      <trkpt lat="42.79831" lon="-0.44464">
        <ele>2264</ele>
        <time>2023-01-29T10:49:53Z</time>
      </trkpt>
      <trkpt lat="42.79836" lon="-0.44488">
        <ele>2257</ele>
        <time>2023-01-29T10:51:43Z</time>
      </trkpt>
      <trkpt lat="42.79818" lon="-0.44493">
        <ele>2274</ele>
        <time>2023-01-29T10:53:05Z</time>
      </trkpt>
      <trkpt lat="42.798" lon="-0.44492">
        <ele>2284</ele>
        <time>2023-01-29T10:53:44Z</time>
      </trkpt>
      <trkpt lat="42.79803" lon="-0.44517">
        <ele>2290</ele>
        <time>2023-01-29T10:54:40Z</time>
      </trkpt>
      <trkpt lat="42.79791" lon="-0.44497">
        <ele>2284.54</ele>
        <time>2023-01-29T11:20:40Z</time>
      </trkpt>
      <trkpt lat="42.79802" lon="-0.44477">
        <ele>2284</ele>
        <time>2023-01-29T11:21:14Z</time>
      </trkpt>
      <trkpt lat="42.79798" lon="-0.44451">
        <ele>2271</ele>
        <time>2023-01-29T11:21:36Z</time>
      </trkpt>
      <trkpt lat="42.79788" lon="-0.44429">
        <ele>2256</ele>
        <time>2023-01-29T11:22:45Z</time>
      </trkpt>
      <trkpt lat="42.79768" lon="-0.44432">
        <ele>2255.01</ele>
        <time>2023-01-29T11:23:10Z</time>
      </trkpt>
      <trkpt lat="42.79751" lon="-0.44442">
        <ele>2255</ele>
        <time>2023-01-29T11:23:18Z</time>
      </trkpt>
      <trkpt lat="42.79732" lon="-0.44449">
        <ele>2255</ele>
        <time>2023-01-29T11:23:27Z</time>
      </trkpt>
      <trkpt lat="42.79712" lon="-0.44452">
        <ele>2237.71</ele>
        <time>2023-01-29T11:23:32Z</time>
      </trkpt>
      <trkpt lat="42.79691" lon="-0.4444">
        <ele>2231.15</ele>
        <time>2023-01-29T11:23:35Z</time>
      </trkpt>
      <trkpt lat="42.79675" lon="-0.44429">
        <ele>2229.01</ele>
        <time>2023-01-29T11:23:40Z</time>
      </trkpt>
      <trkpt lat="42.79659" lon="-0.44418">
        <ele>2225.01</ele>
        <time>2023-01-29T11:25:44Z</time>
      </trkpt>
      <trkpt lat="42.79645" lon="-0.444">
        <ele>2230</ele>
        <time>2023-01-29T11:26:03Z</time>
      </trkpt>
      <trkpt lat="42.79638" lon="-0.44375">
        <ele>2229.7</ele>
        <time>2023-01-29T11:26:15Z</time>
      </trkpt>
      <trkpt lat="42.79626" lon="-0.44354">
        <ele>2224.07</ele>
        <time>2023-01-29T11:26:28Z</time>
      </trkpt>
      <trkpt lat="42.79618" lon="-0.44333">
        <ele>2216.3</ele>
        <time>2023-01-29T11:26:46Z</time>
      </trkpt>
      <trkpt lat="42.79605" lon="-0.44314">
        <ele>2229</ele>
        <time>2023-01-29T11:31:43Z</time>
      </trkpt>
      <trkpt lat="42.79593" lon="-0.44293">
        <ele>2223.05</ele>
        <time>2023-01-29T11:31:50Z</time>
      </trkpt>
      <trkpt lat="42.79581" lon="-0.44273">
        <ele>2229</ele>
        <time>2023-01-29T11:32:34Z</time>
      </trkpt>
      <trkpt lat="42.79571" lon="-0.44253">
        <ele>2229</ele>
        <time>2023-01-29T11:33:02Z</time>
      </trkpt>
      <trkpt lat="42.79561" lon="-0.44232">
        <ele>2221</ele>
        <time>2023-01-29T11:33:23Z</time>
      </trkpt>
      <trkpt lat="42.79553" lon="-0.44207">
        <ele>2227.74</ele>
        <time>2023-01-29T11:34:05Z</time>
      </trkpt>
      <trkpt lat="42.79544" lon="-0.44182">
        <ele>2226.07</ele>
        <time>2023-01-29T11:34:09Z</time>
      </trkpt>
      <trkpt lat="42.7954" lon="-0.44154">
        <ele>2217.81</ele>
        <time>2023-01-29T11:34:13Z</time>
      </trkpt>
      <trkpt lat="42.79536" lon="-0.44121">
        <ele>2210.2</ele>
        <time>2023-01-29T11:34:17Z</time>
      </trkpt>
      <trkpt lat="42.79533" lon="-0.44094">
        <ele>2206.03</ele>
        <time>2023-01-29T11:34:22Z</time>
      </trkpt>
      <trkpt lat="42.79544" lon="-0.44064">
        <ele>2206</ele>
        <time>2023-01-29T11:36:26Z</time>
      </trkpt>
      <trkpt lat="42.79555" lon="-0.44044">
        <ele>2207</ele>
        <time>2023-01-29T11:37:37Z</time>
      </trkpt>
      <trkpt lat="42.79563" lon="-0.44022">
        <ele>2212</ele>
        <time>2023-01-29T11:40:10Z</time>
      </trkpt>
      <trkpt lat="42.7957" lon="-0.43996">
        <ele>2217.46</ele>
        <time>2023-01-29T12:15:34Z</time>
      </trkpt>
      <trkpt lat="42.79571" lon="-0.43965">
        <ele>2212.54</ele>
        <time>2023-01-29T12:15:39Z</time>
      </trkpt>
      <trkpt lat="42.79573" lon="-0.4394">
        <ele>2207.1</ele>
        <time>2023-01-29T12:15:43Z</time>
      </trkpt>
      <trkpt lat="42.79583" lon="-0.43916">
        <ele>2207.1</ele>
        <time>2023-01-29T12:16:38Z</time>
      </trkpt>
      <trkpt lat="42.79585" lon="-0.43889">
        <ele>2207.26</ele>
        <time>2023-01-29T12:16:45Z</time>
      </trkpt>
      <trkpt lat="42.79587" lon="-0.43863">
        <ele>2199.96</ele>
        <time>2023-01-29T12:16:50Z</time>
      </trkpt>
      <trkpt lat="42.79584" lon="-0.43833">
        <ele>2178.69</ele>
        <time>2023-01-29T12:16:56Z</time>
      </trkpt>
      <trkpt lat="42.79599" lon="-0.43817">
        <ele>2178.02</ele>
        <time>2023-01-29T12:16:59Z</time>
      </trkpt>
      <trkpt lat="42.79612" lon="-0.43798">
        <ele>2180.59</ele>
        <time>2023-01-29T12:17:03Z</time>
      </trkpt>
      <trkpt lat="42.79623" lon="-0.43772">
        <ele>2177.29</ele>
        <time>2023-01-29T12:17:08Z</time>
      </trkpt>
      <trkpt lat="42.79616" lon="-0.43746">
        <ele>2169.1</ele>
        <time>2023-01-29T12:17:50Z</time>
      </trkpt>
      <trkpt lat="42.79605" lon="-0.43722">
        <ele>2145.74</ele>
        <time>2023-01-29T12:17:54Z</time>
      </trkpt>
      <trkpt lat="42.79588" lon="-0.43711">
        <ele>2142.03</ele>
        <time>2023-01-29T12:17:58Z</time>
      </trkpt>
      <trkpt lat="42.79579" lon="-0.43688">
        <ele>2139.08</ele>
        <time>2023-01-29T12:18:01Z</time>
      </trkpt>
      <trkpt lat="42.79585" lon="-0.43662">
        <ele>2129.76</ele>
        <time>2023-01-29T12:18:05Z</time>
      </trkpt>
      <trkpt lat="42.79586" lon="-0.43632">
        <ele>2120.64</ele>
        <time>2023-01-29T12:18:11Z</time>
      </trkpt>
      <trkpt lat="42.7959" lon="-0.43607">
        <ele>2114.54</ele>
        <time>2023-01-29T12:18:16Z</time>
      </trkpt>
      <trkpt lat="42.79593" lon="-0.4358">
        <ele>2109.8</ele>
        <time>2023-01-29T12:18:20Z</time>
      </trkpt>
      <trkpt lat="42.79595" lon="-0.43556">
        <ele>2108.01</ele>
        <time>2023-01-29T12:18:24Z</time>
      </trkpt>
      <trkpt lat="42.79601" lon="-0.43532">
        <ele>2111</ele>
        <time>2023-01-29T12:18:31Z</time>
      </trkpt>
      <trkpt lat="42.79618" lon="-0.43516">
        <ele>2103.8</ele>
        <time>2023-01-29T12:19:20Z</time>
      </trkpt>
      <trkpt lat="42.79633" lon="-0.43501">
        <ele>2103.02</ele>
        <time>2023-01-29T12:19:23Z</time>
      </trkpt>
      <trkpt lat="42.79644" lon="-0.4348">
        <ele>2093.77</ele>
        <time>2023-01-29T12:19:26Z</time>
      </trkpt>
      <trkpt lat="42.79655" lon="-0.43459">
        <ele>2094.84</ele>
        <time>2023-01-29T12:19:29Z</time>
      </trkpt>
      <trkpt lat="42.79667" lon="-0.43436">
        <ele>2088</ele>
        <time>2023-01-29T12:19:32Z</time>
      </trkpt>
      <trkpt lat="42.79682" lon="-0.43412">
        <ele>2087.11</ele>
        <time>2023-01-29T12:19:37Z</time>
      </trkpt>
      <trkpt lat="42.79696" lon="-0.43389">
        <ele>2085.19</ele>
        <time>2023-01-29T12:19:41Z</time>
      </trkpt>
      <trkpt lat="42.79703" lon="-0.43359">
        <ele>2082.49</ele>
        <time>2023-01-29T12:19:45Z</time>
      </trkpt>
      <trkpt lat="42.79718" lon="-0.43337">
        <ele>2081</ele>
        <time>2023-01-29T12:19:50Z</time>
      </trkpt>
      <trkpt lat="42.79741" lon="-0.43333">
        <ele>2068.01</ele>
        <time>2023-01-29T12:20:36Z</time>
      </trkpt>
      <trkpt lat="42.7976" lon="-0.43317">
        <ele>2075.99</ele>
        <time>2023-01-29T12:20:42Z</time>
      </trkpt>
      <trkpt lat="42.79763" lon="-0.43287">
        <ele>2076</ele>
        <time>2023-01-29T12:20:45Z</time>
      </trkpt>
      <trkpt lat="42.79763" lon="-0.43262">
        <ele>2072.03</ele>
        <time>2023-01-29T12:20:50Z</time>
      </trkpt>
      <trkpt lat="42.79773" lon="-0.43241">
        <ele>2069</ele>
        <time>2023-01-29T12:21:03Z</time>
      </trkpt>
      <trkpt lat="42.79785" lon="-0.43218">
        <ele>2075.69</ele>
        <time>2023-01-29T12:21:13Z</time>
      </trkpt>
      <trkpt lat="42.79799" lon="-0.432">
        <ele>2075</ele>
        <time>2023-01-29T12:21:18Z</time>
      </trkpt>
      <trkpt lat="42.79806" lon="-0.43172">
        <ele>2064.3</ele>
        <time>2023-01-29T12:21:22Z</time>
      </trkpt>
      <trkpt lat="42.79806" lon="-0.43138">
        <ele>2077.48</ele>
        <time>2023-01-29T12:21:26Z</time>
      </trkpt>
      <trkpt lat="42.79805" lon="-0.43112">
        <ele>2053.65</ele>
        <time>2023-01-29T12:21:30Z</time>
      </trkpt>
      <trkpt lat="42.79808" lon="-0.43082">
        <ele>2065.81</ele>
        <time>2023-01-29T12:21:35Z</time>
      </trkpt>
      <trkpt lat="42.79799" lon="-0.43058">
        <ele>2046.45</ele>
        <time>2023-01-29T12:23:24Z</time>
      </trkpt>
      <trkpt lat="42.79786" lon="-0.4304">
        <ele>2037</ele>
        <time>2023-01-29T12:23:31Z</time>
      </trkpt>
      <trkpt lat="42.79784" lon="-0.43012">
        <ele>2029.22</ele>
        <time>2023-01-29T12:23:37Z</time>
      </trkpt>
      <trkpt lat="42.79792" lon="-0.42987">
        <ele>2022.64</ele>
        <time>2023-01-29T12:23:40Z</time>
      </trkpt>
      <trkpt lat="42.79792" lon="-0.42961">
        <ele>2014.22</ele>
        <time>2023-01-29T12:23:45Z</time>
      </trkpt>
      <trkpt lat="42.79783" lon="-0.42936">
        <ele>2007.63</ele>
        <time>2023-01-29T12:23:49Z</time>
      </trkpt>
      <trkpt lat="42.79775" lon="-0.42909">
        <ele>1984.09</ele>
        <time>2023-01-29T12:23:54Z</time>
      </trkpt>
      <trkpt lat="42.79777" lon="-0.42884">
        <ele>1976.63</ele>
        <time>2023-01-29T12:25:36Z</time>
      </trkpt>
      <trkpt lat="42.79785" lon="-0.42857">
        <ele>1986.28</ele>
        <time>2023-01-29T12:25:40Z</time>
      </trkpt>
      <trkpt lat="42.79796" lon="-0.42834">
        <ele>1984.01</ele>
        <time>2023-01-29T12:25:45Z</time>
      </trkpt>
      <trkpt lat="42.79805" lon="-0.4281">
        <ele>1975</ele>
        <time>2023-01-29T12:26:01Z</time>
      </trkpt>
      <trkpt lat="42.79816" lon="-0.42791">
        <ele>1976.98</ele>
        <time>2023-01-29T12:26:05Z</time>
      </trkpt>
      <trkpt lat="42.79818" lon="-0.42767">
        <ele>1968.81</ele>
        <time>2023-01-29T12:26:10Z</time>
      </trkpt>
      <trkpt lat="42.7981" lon="-0.42741">
        <ele>1959.81</ele>
        <time>2023-01-29T12:26:15Z</time>
      </trkpt>
      <trkpt lat="42.79799" lon="-0.4271">
        <ele>1941.73</ele>
        <time>2023-01-29T12:26:18Z</time>
      </trkpt>
      <trkpt lat="42.79793" lon="-0.4268">
        <ele>1935.26</ele>
        <time>2023-01-29T12:26:20Z</time>
      </trkpt>
      <trkpt lat="42.79797" lon="-0.42648">
        <ele>1931.24</ele>
        <time>2023-01-29T12:26:23Z</time>
      </trkpt>
      <trkpt lat="42.79796" lon="-0.4262">
        <ele>1931</ele>
        <time>2023-01-29T12:26:27Z</time>
      </trkpt>
      <trkpt lat="42.79801" lon="-0.42596">
        <ele>1932</ele>
        <time>2023-01-29T12:27:54Z</time>
      </trkpt>
      <trkpt lat="42.79808" lon="-0.42619">
        <ele>1927.45</ele>
        <time>2023-01-29T12:27:57Z</time>
      </trkpt>
      <trkpt lat="42.79823" lon="-0.42603">
        <ele>1922.45</ele>
        <time>2023-01-29T12:28:01Z</time>
      </trkpt>
      <trkpt lat="42.79837" lon="-0.42579">
        <ele>1926.9</ele>
        <time>2023-01-29T12:28:05Z</time>
      </trkpt>
      <trkpt lat="42.79846" lon="-0.42556">
        <ele>1926</ele>
        <time>2023-01-29T12:29:06Z</time>
      </trkpt>
      <trkpt lat="42.79853" lon="-0.42533">
        <ele>1917</ele>
        <time>2023-01-29T12:29:25Z</time>
      </trkpt>
      <trkpt lat="42.79863" lon="-0.4251">
        <ele>1917.21</ele>
        <time>2023-01-29T12:29:31Z</time>
      </trkpt>
      <trkpt lat="42.79849" lon="-0.42494">
        <ele>1902</ele>
        <time>2023-01-29T12:29:39Z</time>
      </trkpt>
      <trkpt lat="42.79855" lon="-0.4247">
        <ele>1893.4</ele>
        <time>2023-01-29T12:29:45Z</time>
      </trkpt>
      <trkpt lat="42.79867" lon="-0.42447">
        <ele>1896.48</ele>
        <time>2023-01-29T12:29:49Z</time>
      </trkpt>
      <trkpt lat="42.79875" lon="-0.42423">
        <ele>1884</ele>
        <time>2023-01-29T12:30:24Z</time>
      </trkpt>
      <trkpt lat="42.79877" lon="-0.42397">
        <ele>1873.3</ele>
        <time>2023-01-29T12:30:28Z</time>
      </trkpt>
      <trkpt lat="42.79873" lon="-0.42368">
        <ele>1871.02</ele>
        <time>2023-01-29T12:30:33Z</time>
      </trkpt>
      <trkpt lat="42.79867" lon="-0.42344">
        <ele>1870</ele>
        <time>2023-01-29T12:31:34Z</time>
      </trkpt>
      <trkpt lat="42.79861" lon="-0.42318">
        <ele>1864.16</ele>
        <time>2023-01-29T12:31:39Z</time>
      </trkpt>
      <trkpt lat="42.79854" lon="-0.42293">
        <ele>1869.04</ele>
        <time>2023-01-29T12:31:45Z</time>
      </trkpt>
      <trkpt lat="42.79841" lon="-0.42272">
        <ele>1859.9</ele>
        <time>2023-01-29T12:31:52Z</time>
      </trkpt>
      <trkpt lat="42.79824" lon="-0.42254">
        <ele>1866.79</ele>
        <time>2023-01-29T12:31:57Z</time>
      </trkpt>
      <trkpt lat="42.79818" lon="-0.42229">
        <ele>1861</ele>
        <time>2023-01-29T12:32:06Z</time>
      </trkpt>
      <trkpt lat="42.79814" lon="-0.42202">
        <ele>1859</ele>
        <time>2023-01-29T12:32:38Z</time>
      </trkpt>
      <trkpt lat="42.79812" lon="-0.42177">
        <ele>1854.04</ele>
        <time>2023-01-29T12:32:43Z</time>
      </trkpt>
      <trkpt lat="42.79811" lon="-0.42145">
        <ele>1847.06</ele>
        <time>2023-01-29T12:32:48Z</time>
      </trkpt>
      <trkpt lat="42.7982" lon="-0.42119">
        <ele>1839.07</ele>
        <time>2023-01-29T12:32:52Z</time>
      </trkpt>
      <trkpt lat="42.79826" lon="-0.42095">
        <ele>1834.45</ele>
        <time>2023-01-29T12:32:55Z</time>
      </trkpt>
      <trkpt lat="42.79844" lon="-0.42069">
        <ele>1829.53</ele>
        <time>2023-01-29T12:32:58Z</time>
      </trkpt>
      <trkpt lat="42.7986" lon="-0.42049">
        <ele>1826.21</ele>
        <time>2023-01-29T12:33:01Z</time>
      </trkpt>
      <trkpt lat="42.79868" lon="-0.42022">
        <ele>1824.29</ele>
        <time>2023-01-29T12:33:05Z</time>
      </trkpt>
      <trkpt lat="42.79874" lon="-0.41999">
        <ele>1823.3</ele>
        <time>2023-01-29T12:33:09Z</time>
      </trkpt>
      <trkpt lat="42.79876" lon="-0.4197">
        <ele>1818.81</ele>
        <time>2023-01-29T12:33:12Z</time>
      </trkpt>
      <trkpt lat="42.79882" lon="-0.41939">
        <ele>1813.51</ele>
        <time>2023-01-29T12:33:16Z</time>
      </trkpt>
      <trkpt lat="42.79893" lon="-0.41919">
        <ele>1811.13</ele>
        <time>2023-01-29T12:33:19Z</time>
      </trkpt>
      <trkpt lat="42.79909" lon="-0.41899">
        <ele>1804.06</ele>
        <time>2023-01-29T12:33:23Z</time>
      </trkpt>
      <trkpt lat="42.79925" lon="-0.41887">
        <ele>1797.07</ele>
        <time>2023-01-29T12:33:26Z</time>
      </trkpt>
      <trkpt lat="42.79945" lon="-0.41876">
        <ele>1795.02</ele>
        <time>2023-01-29T12:33:30Z</time>
      </trkpt>
      <trkpt lat="42.79961" lon="-0.41859">
        <ele>1790.8</ele>
        <time>2023-01-29T12:34:56Z</time>
      </trkpt>
      <trkpt lat="42.79977" lon="-0.41844">
        <ele>1789.01</ele>
        <time>2023-01-29T12:35:00Z</time>
      </trkpt>
      <trkpt lat="42.79984" lon="-0.41814">
        <ele>1785.11</ele>
        <time>2023-01-29T12:35:05Z</time>
      </trkpt>
      <trkpt lat="42.79999" lon="-0.41798">
        <ele>1780.04</ele>
        <time>2023-01-29T12:35:10Z</time>
      </trkpt>
      <trkpt lat="42.79983" lon="-0.41779">
        <ele>1780</ele>
        <time>2023-01-29T12:36:28Z</time>
      </trkpt>
      <trkpt lat="42.79979" lon="-0.41755">
        <ele>1772</ele>
        <time>2023-01-29T12:36:45Z</time>
      </trkpt>
      <trkpt lat="42.79967" lon="-0.41729">
        <ele>1770.97</ele>
        <time>2023-01-29T12:37:07Z</time>
      </trkpt>
      <trkpt lat="42.79952" lon="-0.4171">
        <ele>1764.63</ele>
        <time>2023-01-29T12:37:10Z</time>
      </trkpt>
      <trkpt lat="42.79939" lon="-0.41686">
        <ele>1758.56</ele>
        <time>2023-01-29T12:37:13Z</time>
      </trkpt>
      <trkpt lat="42.79927" lon="-0.41656">
        <ele>1755.92</ele>
        <time>2023-01-29T12:37:16Z</time>
      </trkpt>
      <trkpt lat="42.79915" lon="-0.41628">
        <ele>1752.99</ele>
        <time>2023-01-29T12:37:19Z</time>
      </trkpt>
      <trkpt lat="42.79901" lon="-0.416">
        <ele>1751.18</ele>
        <time>2023-01-29T12:37:22Z</time>
      </trkpt>
      <trkpt lat="42.79892" lon="-0.4158">
        <ele>1749.62</ele>
        <time>2023-01-29T12:37:24Z</time>
      </trkpt>
      <trkpt lat="42.79877" lon="-0.41551">
        <ele>1747.34</ele>
        <time>2023-01-29T12:37:27Z</time>
      </trkpt>
      <trkpt lat="42.79865" lon="-0.41524">
        <ele>1747.01</ele>
        <time>2023-01-29T12:37:30Z</time>
      </trkpt>
      <trkpt lat="42.79864" lon="-0.41499">
        <ele>1747</ele>
        <time>2023-01-29T12:37:34Z</time>
      </trkpt>
      <trkpt lat="42.79868" lon="-0.41475">
        <ele>1747</ele>
        <time>2023-01-29T12:37:39Z</time>
      </trkpt>
      <trkpt lat="42.79881" lon="-0.41458">
        <ele>1747</ele>
        <time>2023-01-29T12:37:48Z</time>
      </trkpt>
      <trkpt lat="42.79898" lon="-0.41443">
        <ele>1743.18</ele>
        <time>2023-01-29T12:37:58Z</time>
      </trkpt>
      <trkpt lat="42.79908" lon="-0.41423">
        <ele>1743</ele>
        <time>2023-01-29T12:38:10Z</time>
      </trkpt>
      <trkpt lat="42.79919" lon="-0.41403">
        <ele>1746.99</ele>
        <time>2023-01-29T12:39:10Z</time>
      </trkpt>
      <trkpt lat="42.79935" lon="-0.41394">
        <ele>1747</ele>
        <time>2023-01-29T12:39:28Z</time>
      </trkpt>
      <trkpt lat="42.79955" lon="-0.4139">
        <ele>1750</ele>
        <time>2023-01-29T12:39:43Z</time>
      </trkpt>
      <trkpt lat="42.79973" lon="-0.41392">
        <ele>1752.1</ele>
        <time>2023-01-29T12:40:00Z</time>
      </trkpt>
      <trkpt lat="42.79991" lon="-0.41391">
        <ele>1753</ele>
        <time>2023-01-29T12:40:20Z</time>
      </trkpt>
      <trkpt lat="42.80009" lon="-0.41398">
        <ele>1755</ele>
        <time>2023-01-29T12:40:36Z</time>
      </trkpt>
      <trkpt lat="42.80026" lon="-0.41411">
        <ele>1755</ele>
        <time>2023-01-29T12:40:54Z</time>
      </trkpt>
      <trkpt lat="42.80043" lon="-0.41421">
        <ele>1757</ele>
        <time>2023-01-29T12:41:12Z</time>
      </trkpt>
      <trkpt lat="42.80061" lon="-0.41427">
        <ele>1760</ele>
        <time>2023-01-29T12:41:30Z</time>
      </trkpt>
      <trkpt lat="42.80079" lon="-0.41435">
        <ele>1760</ele>
        <time>2023-01-29T12:41:49Z</time>
      </trkpt>
      <trkpt lat="42.80097" lon="-0.41441">
        <ele>1761</ele>
        <time>2023-01-29T12:42:04Z</time>
      </trkpt>
      <trkpt lat="42.8011" lon="-0.4146">
        <ele>1762</ele>
        <time>2023-01-29T12:42:21Z</time>
      </trkpt>
      <trkpt lat="42.80118" lon="-0.41482">
        <ele>1764</ele>
        <time>2023-01-29T12:42:37Z</time>
      </trkpt>
      <trkpt lat="42.80126" lon="-0.41506">
        <ele>1765</ele>
        <time>2023-01-29T12:42:55Z</time>
      </trkpt>
      <trkpt lat="42.80138" lon="-0.41525">
        <ele>1765</ele>
        <time>2023-01-29T12:43:12Z</time>
      </trkpt>
      <trkpt lat="42.80155" lon="-0.41538">
        <ele>1768</ele>
        <time>2023-01-29T12:43:27Z</time>
      </trkpt>
      <trkpt lat="42.80166" lon="-0.41558">
        <ele>1768</ele>
        <time>2023-01-29T12:43:45Z</time>
      </trkpt>
      <trkpt lat="42.80184" lon="-0.41568">
        <ele>1771</ele>
        <time>2023-01-29T12:44:06Z</time>
      </trkpt>
      <trkpt lat="42.802" lon="-0.41558">
        <ele>1772</ele>
        <time>2023-01-29T12:44:23Z</time>
      </trkpt>
      <trkpt lat="42.80209" lon="-0.41535">
        <ele>1775</ele>
        <time>2023-01-29T12:55:01Z</time>
      </trkpt>
      <trkpt lat="42.8021" lon="-0.41511">
        <ele>1784</ele>
        <time>2023-01-29T12:55:40Z</time>
      </trkpt>
      <trkpt lat="42.80213" lon="-0.41486">
        <ele>1791</ele>
        <time>2023-01-29T12:56:22Z</time>
      </trkpt>
      <trkpt lat="42.80208" lon="-0.41463">
        <ele>1796</ele>
        <time>2023-01-29T12:56:52Z</time>
      </trkpt>
      <trkpt lat="42.80211" lon="-0.41438">
        <ele>1800</ele>
        <time>2023-01-29T12:57:22Z</time>
      </trkpt>
      <trkpt lat="42.80224" lon="-0.41421">
        <ele>1807.98</ele>
        <time>2023-01-29T12:58:10Z</time>
      </trkpt>
      <trkpt lat="42.80228" lon="-0.41396">
        <ele>1811</ele>
        <time>2023-01-29T12:58:45Z</time>
      </trkpt>
      <trkpt lat="42.80233" lon="-0.41372">
        <ele>1816</ele>
        <time>2023-01-29T12:59:18Z</time>
      </trkpt>
      <trkpt lat="42.80249" lon="-0.41384">
        <ele>1816</ele>
        <time>2023-01-29T12:59:55Z</time>
      </trkpt>
      <trkpt lat="42.80263" lon="-0.41401">
        <ele>1821</ele>
        <time>2023-01-29T13:00:26Z</time>
      </trkpt>
      <trkpt lat="42.8028" lon="-0.41394">
        <ele>1828</ele>
        <time>2023-01-29T13:01:10Z</time>
      </trkpt>
      <trkpt lat="42.80283" lon="-0.41368">
        <ele>1831</ele>
        <time>2023-01-29T13:01:40Z</time>
      </trkpt>
      <trkpt lat="42.80289" lon="-0.41345">
        <ele>1834</ele>
        <time>2023-01-29T13:02:06Z</time>
      </trkpt>
      <trkpt lat="42.80297" lon="-0.41323">
        <ele>1836</ele>
        <time>2023-01-29T13:02:34Z</time>
      </trkpt>
      <trkpt lat="42.80313" lon="-0.41312">
        <ele>1840</ele>
        <time>2023-01-29T13:04:00Z</time>
      </trkpt>
      <trkpt lat="42.80317" lon="-0.41287">
        <ele>1841</ele>
        <time>2023-01-29T13:04:18Z</time>
      </trkpt>
      <trkpt lat="42.80321" lon="-0.41263">
        <ele>1842</ele>
        <time>2023-01-29T13:04:36Z</time>
      </trkpt>
      <trkpt lat="42.80332" lon="-0.41242">
        <ele>1843</ele>
        <time>2023-01-29T13:04:59Z</time>
      </trkpt>
      <trkpt lat="42.80345" lon="-0.41226">
        <ele>1847</ele>
        <time>2023-01-29T13:05:25Z</time>
      </trkpt>
      <trkpt lat="42.8036" lon="-0.41212">
        <ele>1847</ele>
        <time>2023-01-29T13:05:50Z</time>
      </trkpt>
      <trkpt lat="42.80365" lon="-0.41187">
        <ele>1856</ele>
        <time>2023-01-29T13:06:15Z</time>
      </trkpt>
      <trkpt lat="42.80372" lon="-0.41164">
        <ele>1856.97</ele>
        <time>2023-01-29T13:06:45Z</time>
      </trkpt>
      <trkpt lat="42.8038" lon="-0.41142">
        <ele>1857</ele>
        <time>2023-01-29T13:07:45Z</time>
      </trkpt>
      <trkpt lat="42.80388" lon="-0.4112">
        <ele>1858</ele>
        <time>2023-01-29T13:08:06Z</time>
      </trkpt>
      <trkpt lat="42.80395" lon="-0.41096">
        <ele>1862</ele>
        <time>2023-01-29T13:08:25Z</time>
      </trkpt>
      <trkpt lat="42.80389" lon="-0.41072">
        <ele>1865</ele>
        <time>2023-01-29T13:08:53Z</time>
      </trkpt>
      <trkpt lat="42.80378" lon="-0.41053">
        <ele>1865</ele>
        <time>2023-01-29T13:09:26Z</time>
      </trkpt>
      <trkpt lat="42.80363" lon="-0.41037">
        <ele>1865</ele>
        <time>2023-01-29T13:09:54Z</time>
      </trkpt>
      <trkpt lat="42.80355" lon="-0.41015">
        <ele>1872</ele>
        <time>2023-01-29T13:12:02Z</time>
      </trkpt>
      <trkpt lat="42.80347" lon="-0.40993">
        <ele>1880</ele>
        <time>2023-01-29T13:12:27Z</time>
      </trkpt>
      <trkpt lat="42.80341" lon="-0.4097">
        <ele>1886.94</ele>
        <time>2023-01-29T13:13:01Z</time>
      </trkpt>
      <trkpt lat="42.80334" lon="-0.40946">
        <ele>1887</ele>
        <time>2023-01-29T13:13:26Z</time>
      </trkpt>
      <trkpt lat="42.80328" lon="-0.40922">
        <ele>1880</ele>
        <time>2023-01-29T13:13:52Z</time>
      </trkpt>
      <trkpt lat="42.80322" lon="-0.40899">
        <ele>1890</ele>
        <time>2023-01-29T13:14:23Z</time>
      </trkpt>
      <trkpt lat="42.80322" lon="-0.40874">
        <ele>1896</ele>
        <time>2023-01-29T13:14:52Z</time>
      </trkpt>
      <trkpt lat="42.80328" lon="-0.40851">
        <ele>1900</ele>
        <time>2023-01-29T13:15:26Z</time>
      </trkpt>
      <trkpt lat="42.80332" lon="-0.40826">
        <ele>1901</ele>
        <time>2023-01-29T13:17:24Z</time>
      </trkpt>
      <trkpt lat="42.80336" lon="-0.40802">
        <ele>1912.98</ele>
        <time>2023-01-29T13:17:45Z</time>
      </trkpt>
      <trkpt lat="42.80338" lon="-0.40777">
        <ele>1915.8</ele>
        <time>2023-01-29T13:18:14Z</time>
      </trkpt>
      <trkpt lat="42.80331" lon="-0.40754">
        <ele>1904</ele>
        <time>2023-01-29T13:18:38Z</time>
      </trkpt>
      <trkpt lat="42.80323" lon="-0.40731">
        <ele>1911</ele>
        <time>2023-01-29T13:19:04Z</time>
      </trkpt>
      <trkpt lat="42.80328" lon="-0.40707">
        <ele>1918</ele>
        <time>2023-01-29T13:19:35Z</time>
      </trkpt>
      <trkpt lat="42.80345" lon="-0.40697">
        <ele>1932</ele>
        <time>2023-01-29T13:20:59Z</time>
      </trkpt>
      <trkpt lat="42.80358" lon="-0.40714">
        <ele>1932</ele>
        <time>2023-01-29T13:21:42Z</time>
      </trkpt>
      <trkpt lat="42.80374" lon="-0.40702">
        <ele>1946</ele>
        <time>2023-01-29T13:22:41Z</time>
      </trkpt>
      <trkpt lat="42.80383" lon="-0.40681">
        <ele>1952</ele>
        <time>2023-01-29T13:24:11Z</time>
      </trkpt>
      <trkpt lat="42.8038" lon="-0.40656">
        <ele>1958</ele>
        <time>2023-01-29T13:24:45Z</time>
      </trkpt>
      <trkpt lat="42.80389" lon="-0.40635">
        <ele>1977</ele>
        <time>2023-01-29T13:25:43Z</time>
      </trkpt>
      <trkpt lat="42.80405" lon="-0.40622">
        <ele>1977</ele>
        <time>2023-01-29T13:26:26Z</time>
      </trkpt>
      <trkpt lat="42.80412" lon="-0.40598">
        <ele>1973</ele>
        <time>2023-01-29T13:29:06Z</time>
      </trkpt>
      <trkpt lat="42.80416" lon="-0.40574">
        <ele>1974</ele>
        <time>2023-01-29T13:29:33Z</time>
      </trkpt>
      <trkpt lat="42.80413" lon="-0.40549">
        <ele>1978.99</ele>
        <time>2023-01-29T13:29:54Z</time>
      </trkpt>
      <trkpt lat="42.80429" lon="-0.40537">
        <ele>1989</ele>
        <time>2023-01-29T13:30:57Z</time>
      </trkpt>
      <trkpt lat="42.80446" lon="-0.40531">
        <ele>2008.95</ele>
        <time>2023-01-29T13:32:12Z</time>
      </trkpt>
      <trkpt lat="42.80459" lon="-0.40513">
        <ele>2007</ele>
        <time>2023-01-29T13:33:34Z</time>
      </trkpt>
      <trkpt lat="42.80476" lon="-0.40504">
        <ele>2008</ele>
        <time>2023-01-29T13:34:00Z</time>
      </trkpt>
      <trkpt lat="42.80492" lon="-0.40517">
        <ele>2008</ele>
        <time>2023-01-29T13:34:23Z</time>
      </trkpt>
      <trkpt lat="42.80509" lon="-0.40527">
        <ele>2012</ele>
        <time>2023-01-29T13:34:55Z</time>
      </trkpt>
      <trkpt lat="42.80526" lon="-0.40533">
        <ele>2020</ele>
        <time>2023-01-29T13:35:24Z</time>
      </trkpt>
      <trkpt lat="42.80544" lon="-0.40531">
        <ele>2024</ele>
        <time>2023-01-29T13:35:52Z</time>
      </trkpt>
      <trkpt lat="42.80562" lon="-0.40527">
        <ele>2023</ele>
        <time>2023-01-29T13:36:22Z</time>
      </trkpt>
      <trkpt lat="42.80581" lon="-0.40525">
        <ele>2023</ele>
        <time>2023-01-29T13:36:54Z</time>
      </trkpt>
      <trkpt lat="42.80598" lon="-0.40531">
        <ele>2026</ele>
        <time>2023-01-29T13:37:13Z</time>
      </trkpt>
      <trkpt lat="42.80616" lon="-0.40535">
        <ele>2030.99</ele>
        <time>2023-01-29T13:40:30Z</time>
      </trkpt>
      <trkpt lat="42.80634" lon="-0.40535">
        <ele>2031</ele>
        <time>2023-01-29T13:40:54Z</time>
      </trkpt>
      <trkpt lat="42.80651" lon="-0.40524">
        <ele>2033</ele>
        <time>2023-01-29T13:41:25Z</time>
      </trkpt>
      <trkpt lat="42.80668" lon="-0.40516">
        <ele>2046.62</ele>
        <time>2023-01-29T13:42:00Z</time>
      </trkpt>
      <trkpt lat="42.80681" lon="-0.405">
        <ele>2045.18</ele>
        <time>2023-01-29T13:42:39Z</time>
      </trkpt>
      <trkpt lat="42.80697" lon="-0.40512">
        <ele>2066</ele>
        <time>2023-01-29T13:44:02Z</time>
      </trkpt>
      <trkpt lat="42.80702" lon="-0.40535">
        <ele>2071</ele>
        <time>2023-01-29T13:44:38Z</time>
      </trkpt>
      <trkpt lat="42.8072" lon="-0.40541">
        <ele>2071</ele>
        <time>2023-01-29T13:46:38Z</time>
      </trkpt>
      <trkpt lat="42.80719" lon="-0.40566">
        <ele>2077</ele>
        <time>2023-01-29T13:47:21Z</time>
      </trkpt>
      <trkpt lat="42.80714" lon="-0.40589">
        <ele>2084</ele>
        <time>2023-01-29T13:47:58Z</time>
      </trkpt>
      <trkpt lat="42.80722" lon="-0.40611">
        <ele>2084</ele>
        <time>2023-01-29T13:49:15Z</time>
      </trkpt>
      <trkpt lat="42.80719" lon="-0.40635">
        <ele>2090</ele>
        <time>2023-01-29T13:49:55Z</time>
      </trkpt>
      <trkpt lat="42.80737" lon="-0.4063">
        <ele>2105</ele>
        <time>2023-01-29T13:51:05Z</time>
      </trkpt>
      <trkpt lat="42.80742" lon="-0.40654">
        <ele>2107</ele>
        <time>2023-01-29T13:52:03Z</time>
      </trkpt>
      <trkpt lat="42.80744" lon="-0.4068">
        <ele>2108</ele>
        <time>2023-01-29T13:52:35Z</time>
      </trkpt>
      <trkpt lat="42.80753" lon="-0.40701">
        <ele>2116</ele>
        <time>2023-01-29T13:53:13Z</time>
      </trkpt>
      <trkpt lat="42.80769" lon="-0.40715">
        <ele>2116</ele>
        <time>2023-01-29T13:53:48Z</time>
      </trkpt>
      <trkpt lat="42.80787" lon="-0.40717">
        <ele>2123</ele>
        <time>2023-01-29T13:54:22Z</time>
      </trkpt>
      <trkpt lat="42.80795" lon="-0.40695">
        <ele>2123</ele>
        <time>2023-01-29T13:55:29Z</time>
      </trkpt>
      <trkpt lat="42.80795" lon="-0.4067">
        <ele>2132</ele>
        <time>2023-01-29T13:56:20Z</time>
      </trkpt>
      <trkpt lat="42.808" lon="-0.40646">
        <ele>2139</ele>
        <time>2023-01-29T13:56:59Z</time>
      </trkpt>
      <trkpt lat="42.80814" lon="-0.4063">
        <ele>2141</ele>
        <time>2023-01-29T13:57:22Z</time>
      </trkpt>
      <trkpt lat="42.80827" lon="-0.40614">
        <ele>2141</ele>
        <time>2023-01-29T14:02:44Z</time>
      </trkpt>
      <trkpt lat="42.80847" lon="-0.40623">
        <ele>2127.08</ele>
        <time>2023-01-29T14:09:28Z</time>
      </trkpt>
      <trkpt lat="42.80865" lon="-0.4062">
        <ele>2111.53</ele>
        <time>2023-01-29T14:09:33Z</time>
      </trkpt>
      <trkpt lat="42.80882" lon="-0.40597">
        <ele>2113.93</ele>
        <time>2023-01-29T14:09:36Z</time>
      </trkpt>
      <trkpt lat="42.80897" lon="-0.40578">
        <ele>2105.04</ele>
        <time>2023-01-29T14:09:39Z</time>
      </trkpt>
      <trkpt lat="42.80911" lon="-0.40563">
        <ele>2105.99</ele>
        <time>2023-01-29T14:09:43Z</time>
      </trkpt>
      <trkpt lat="42.80927" lon="-0.40552">
        <ele>2100.54</ele>
        <time>2023-01-29T14:09:46Z</time>
      </trkpt>
      <trkpt lat="42.80945" lon="-0.40538">
        <ele>2095.11</ele>
        <time>2023-01-29T14:09:49Z</time>
      </trkpt>
      <trkpt lat="42.80967" lon="-0.40538">
        <ele>2093</ele>
        <time>2023-01-29T14:10:07Z</time>
      </trkpt>
      <trkpt lat="42.80985" lon="-0.40552">
        <ele>2089</ele>
        <time>2023-01-29T14:10:14Z</time>
      </trkpt>
      <trkpt lat="42.80999" lon="-0.40569">
        <ele>2077.32</ele>
        <time>2023-01-29T14:10:20Z</time>
      </trkpt>
      <trkpt lat="42.8101" lon="-0.40594">
        <ele>2063.3</ele>
        <time>2023-01-29T14:10:26Z</time>
      </trkpt>
      <trkpt lat="42.81029" lon="-0.40601">
        <ele>2061.6</ele>
        <time>2023-01-29T14:10:59Z</time>
      </trkpt>
      <trkpt lat="42.81046" lon="-0.4061">
        <ele>2061</ele>
        <time>2023-01-29T14:11:06Z</time>
      </trkpt>
      <trkpt lat="42.81066" lon="-0.40619">
        <ele>2050.05</ele>
        <time>2023-01-29T14:11:11Z</time>
      </trkpt>
      <trkpt lat="42.81087" lon="-0.40627">
        <ele>2052.1</ele>
        <time>2023-01-29T14:11:17Z</time>
      </trkpt>
      <trkpt lat="42.81095" lon="-0.40652">
        <ele>2042.3</ele>
        <time>2023-01-29T14:11:23Z</time>
      </trkpt>
      <trkpt lat="42.81092" lon="-0.40679">
        <ele>2031.3</ele>
        <time>2023-01-29T14:11:28Z</time>
      </trkpt>
      <trkpt lat="42.81104" lon="-0.40703">
        <ele>2023.22</ele>
        <time>2023-01-29T14:11:33Z</time>
      </trkpt>
      <trkpt lat="42.81116" lon="-0.40726">
        <ele>2016</ele>
        <time>2023-01-29T14:11:37Z</time>
      </trkpt>
      <trkpt lat="42.81131" lon="-0.40742">
        <ele>2013.02</ele>
        <time>2023-01-29T14:11:41Z</time>
      </trkpt>
      <trkpt lat="42.81145" lon="-0.40762">
        <ele>2004.5</ele>
        <time>2023-01-29T14:11:45Z</time>
      </trkpt>
      <trkpt lat="42.81161" lon="-0.40774">
        <ele>2004.01</ele>
        <time>2023-01-29T14:11:48Z</time>
      </trkpt>
      <trkpt lat="42.81175" lon="-0.40797">
        <ele>1995.13</ele>
        <time>2023-01-29T14:11:52Z</time>
      </trkpt>
      <trkpt lat="42.81191" lon="-0.40811">
        <ele>1985.9</ele>
        <time>2023-01-29T14:11:55Z</time>
      </trkpt>
      <trkpt lat="42.81203" lon="-0.40831">
        <ele>1986.84</ele>
        <time>2023-01-29T14:11:58Z</time>
      </trkpt>
      <trkpt lat="42.81221" lon="-0.40839">
        <ele>1979</ele>
        <time>2023-01-29T14:13:04Z</time>
      </trkpt>
      <trkpt lat="42.81237" lon="-0.40854">
        <ele>1978.01</ele>
        <time>2023-01-29T14:13:08Z</time>
      </trkpt>
      <trkpt lat="42.8125" lon="-0.40871">
        <ele>1965</ele>
        <time>2023-01-29T14:14:03Z</time>
      </trkpt>
      <trkpt lat="42.81237" lon="-0.40888">
        <ele>1967.98</ele>
        <time>2023-01-29T14:14:07Z</time>
      </trkpt>
      <trkpt lat="42.81251" lon="-0.40904">
        <ele>1951.92</ele>
        <time>2023-01-29T14:14:12Z</time>
      </trkpt>
      <trkpt lat="42.81269" lon="-0.40904">
        <ele>1948</ele>
        <time>2023-01-29T14:14:49Z</time>
      </trkpt>
      <trkpt lat="42.81279" lon="-0.40925">
        <ele>1932.73</ele>
        <time>2023-01-29T14:15:06Z</time>
      </trkpt>
      <trkpt lat="42.81294" lon="-0.4094">
        <ele>1932</ele>
        <time>2023-01-29T14:15:27Z</time>
      </trkpt>
      <trkpt lat="42.8131" lon="-0.40953">
        <ele>1914.11</ele>
        <time>2023-01-29T14:15:36Z</time>
      </trkpt>
      <trkpt lat="42.81323" lon="-0.40971">
        <ele>1914</ele>
        <time>2023-01-29T14:16:49Z</time>
      </trkpt>
      <trkpt lat="42.81337" lon="-0.40989">
        <ele>1895.03</ele>
        <time>2023-01-29T14:17:07Z</time>
      </trkpt>
      <trkpt lat="42.81325" lon="-0.41011">
        <ele>1886</ele>
        <time>2023-01-29T14:17:22Z</time>
      </trkpt>
      <trkpt lat="42.81337" lon="-0.41031">
        <ele>1870.95</ele>
        <time>2023-01-29T14:17:29Z</time>
      </trkpt>
      <trkpt lat="42.81357" lon="-0.41032">
        <ele>1867.03</ele>
        <time>2023-01-29T14:17:33Z</time>
      </trkpt>
      <trkpt lat="42.81374" lon="-0.41047">
        <ele>1856</ele>
        <time>2023-01-29T14:17:58Z</time>
      </trkpt>
      <trkpt lat="42.81386" lon="-0.41067">
        <ele>1846.27</ele>
        <time>2023-01-29T14:18:03Z</time>
      </trkpt>
      <trkpt lat="42.81399" lon="-0.41087">
        <ele>1828.51</ele>
        <time>2023-01-29T14:18:09Z</time>
      </trkpt>
      <trkpt lat="42.81415" lon="-0.41104">
        <ele>1827</ele>
        <time>2023-01-29T14:18:51Z</time>
      </trkpt>
      <trkpt lat="42.81433" lon="-0.41105">
        <ele>1813.03</ele>
        <time>2023-01-29T14:18:56Z</time>
      </trkpt>
      <trkpt lat="42.81451" lon="-0.41117">
        <ele>1798.94</ele>
        <time>2023-01-29T14:19:01Z</time>
      </trkpt>
      <trkpt lat="42.81454" lon="-0.41144">
        <ele>1795.2</ele>
        <time>2023-01-29T14:19:26Z</time>
      </trkpt>
      <trkpt lat="42.81458" lon="-0.41176">
        <ele>1796.74</ele>
        <time>2023-01-29T14:19:30Z</time>
      </trkpt>
      <trkpt lat="42.81469" lon="-0.41196">
        <ele>1802.59</ele>
        <time>2023-01-29T14:19:33Z</time>
      </trkpt>
      <trkpt lat="42.81485" lon="-0.4121">
        <ele>1794.07</ele>
        <time>2023-01-29T14:19:37Z</time>
      </trkpt>
      <trkpt lat="42.81503" lon="-0.41222">
        <ele>1782.17</ele>
        <time>2023-01-29T14:19:42Z</time>
      </trkpt>
      <trkpt lat="42.81518" lon="-0.4124">
        <ele>1778</ele>
        <time>2023-01-29T14:21:56Z</time>
      </trkpt>
      <trkpt lat="42.81528" lon="-0.41262">
        <ele>1778</ele>
        <time>2023-01-29T14:22:03Z</time>
      </trkpt>
      <trkpt lat="42.81541" lon="-0.41279">
        <ele>1765.03</ele>
        <time>2023-01-29T14:22:08Z</time>
      </trkpt>
      <trkpt lat="42.81555" lon="-0.41299">
        <ele>1765</ele>
        <time>2023-01-29T14:22:26Z</time>
      </trkpt>
      <trkpt lat="42.81576" lon="-0.41295">
        <ele>1754.09</ele>
        <time>2023-01-29T14:22:30Z</time>
      </trkpt>
      <trkpt lat="42.81595" lon="-0.41295">
        <ele>1747.19</ele>
        <time>2023-01-29T14:22:34Z</time>
      </trkpt>
      <trkpt lat="42.81592" lon="-0.4132">
        <ele>1745</ele>
        <time>2023-01-29T14:23:28Z</time>
      </trkpt>
      <trkpt lat="42.81606" lon="-0.41343">
        <ele>1748.89</ele>
        <time>2023-01-29T14:23:35Z</time>
      </trkpt>
      <trkpt lat="42.8162" lon="-0.41364">
        <ele>1743.04</ele>
        <time>2023-01-29T14:23:39Z</time>
      </trkpt>
      <trkpt lat="42.81634" lon="-0.41382">
        <ele>1744</ele>
        <time>2023-01-29T14:23:48Z</time>
      </trkpt>
      <trkpt lat="42.8165" lon="-0.41394">
        <ele>1746.98</ele>
        <time>2023-01-29T14:23:56Z</time>
      </trkpt>
      <trkpt lat="42.81669" lon="-0.41401">
        <ele>1743.5</ele>
        <time>2023-01-29T14:24:08Z</time>
      </trkpt>
      <trkpt lat="42.81681" lon="-0.41419">
        <ele>1747.84</ele>
        <time>2023-01-29T14:24:52Z</time>
      </trkpt>
      <trkpt lat="42.81682" lon="-0.41444">
        <ele>1748</ele>
        <time>2023-01-29T14:26:22Z</time>
      </trkpt>
      <trkpt lat="42.81675" lon="-0.41467">
        <ele>1751</ele>
        <time>2023-01-29T14:26:57Z</time>
      </trkpt>
      <trkpt lat="42.81672" lon="-0.41493">
        <ele>1749</ele>
        <time>2023-01-29T14:27:09Z</time>
      </trkpt>
      <trkpt lat="42.81673" lon="-0.41521">
        <ele>1740.07</ele>
        <time>2023-01-29T14:27:23Z</time>
      </trkpt>
      <trkpt lat="42.81671" lon="-0.41546">
        <ele>1731.24</ele>
        <time>2023-01-29T14:27:26Z</time>
      </trkpt>
      <trkpt lat="42.81664" lon="-0.41572">
        <ele>1726.92</ele>
        <time>2023-01-29T14:27:30Z</time>
      </trkpt>
      <trkpt lat="42.8165" lon="-0.41592">
        <ele>1720.63</ele>
        <time>2023-01-29T14:27:33Z</time>
      </trkpt>
      <trkpt lat="42.81634" lon="-0.41613">
        <ele>1717.22</ele>
        <time>2023-01-29T14:27:36Z</time>
      </trkpt>
      <trkpt lat="42.81616" lon="-0.41635">
        <ele>1716.03</ele>
        <time>2023-01-29T14:27:39Z</time>
      </trkpt>
      <trkpt lat="42.81602" lon="-0.41654">
        <ele>1717.96</ele>
        <time>2023-01-29T14:27:44Z</time>
      </trkpt>
    </trkseg>
  </trk>
</gpx>